createdAt,value
2023-03-04T00:00:58.781Z,12.60
2023-03-04T00:01:58.845Z,13.00
2023-03-04T00:02:58.875Z,11.00
2023-03-04T00:03:58.777Z,9.40
2023-03-04T00:04:58.734Z,11.20
2023-03-04T00:05:58.746Z,14.90
2023-03-04T00:06:58.715Z,12.60
2023-03-04T00:07:58.714Z,11.80
2023-03-04T00:08:58.723Z,13.20
2023-03-04T00:09:58.693Z,17.90
2023-03-04T00:10:58.679Z,7.80
2023-03-04T00:11:58.693Z,15.70
2023-03-04T00:12:58.660Z,7.60
2023-03-04T00:13:58.652Z,9.20
2023-03-04T00:14:58.645Z,9.30
2023-03-04T00:15:58.665Z,10.80
2023-03-04T00:16:58.611Z,14.80
2023-03-04T00:17:58.603Z,12.60
2023-03-04T00:18:58.592Z,19.70
2023-03-04T00:19:58.605Z,9.40
2023-03-04T00:20:58.564Z,10.30
2023-03-04T00:21:58.613Z,14.10
2023-03-04T00:22:58.549Z,15.10
2023-03-04T00:23:58.535Z,17.90
2023-03-04T00:24:58.542Z,11.70
2023-03-04T00:25:58.536Z,18.00
2023-03-04T00:26:58.502Z,17.10
2023-03-04T00:27:58.506Z,9.60
2023-03-04T00:28:58.486Z,10.40
2023-03-04T00:29:58.487Z,13.40
2023-03-04T00:30:58.483Z,13.40
2023-03-04T00:31:58.554Z,10.50
2023-03-04T00:32:58.453Z,10.50
2023-03-04T00:33:58.436Z,9.30
2023-03-04T00:34:58.413Z,14.80
2023-03-04T00:35:58.424Z,16.60
2023-03-04T00:36:58.412Z,20.50
2023-03-04T00:37:58.397Z,12.90
2023-03-04T00:38:58.390Z,16.20
2023-03-04T00:39:58.365Z,14.00
2023-03-04T00:40:58.377Z,16.30
2023-03-04T00:41:58.380Z,10.80
2023-03-04T00:42:58.324Z,17.20
2023-03-04T00:43:58.323Z,15.90
2023-03-04T00:44:58.303Z,14.00
2023-03-04T00:45:58.329Z,16.70
2023-03-04T00:46:58.317Z,16.90
2023-03-04T00:47:58.282Z,15.10
2023-03-04T00:48:58.266Z,12.30
2023-03-04T00:49:58.253Z,13.50
2023-03-04T00:50:58.233Z,15.30
2023-03-04T00:51:58.253Z,15.80
2023-03-04T00:52:58.268Z,15.80
2023-03-04T00:54:00.620Z,13.30
2023-03-04T00:54:58.203Z,12.40
2023-03-04T00:55:58.192Z,9.30
2023-03-04T00:56:58.184Z,10.10
2023-03-04T00:57:58.174Z,10.60
2023-03-04T00:58:58.196Z,12.00
2023-03-04T00:59:58.170Z,14.50
2023-03-04T01:00:58.172Z,16.60
2023-03-04T01:01:58.128Z,13.90
2023-03-04T01:02:58.148Z,15.70
2023-03-04T01:03:58.116Z,13.70
2023-03-04T01:04:58.085Z,9.50
2023-03-04T01:05:58.084Z,10.40
2023-03-04T01:06:58.074Z,8.00
2023-03-04T01:07:58.062Z,10.30
2023-03-04T01:08:58.077Z,10.60
2023-03-04T01:09:58.057Z,19.40
2023-03-04T01:10:58.034Z,11.90
2023-03-04T01:11:58.013Z,13.70
2023-03-04T01:12:58.002Z,11.40
2023-03-04T01:13:57.991Z,8.60
2023-03-04T01:14:58.016Z,11.60
2023-03-04T01:15:57.991Z,14.20
2023-03-04T01:16:58.004Z,10.30
2023-03-04T01:17:58.011Z,9.60
2023-03-04T01:18:57.933Z,20.70
2023-03-04T01:19:57.942Z,12.10
2023-03-04T01:20:57.912Z,10.90
2023-03-04T01:21:57.902Z,11.50
2023-03-04T01:22:57.913Z,17.90
2023-03-04T01:23:57.897Z,15.00
2023-03-04T01:24:57.876Z,16.30
2023-03-04T01:25:57.884Z,8.50
2023-03-04T01:26:57.854Z,15.20
2023-03-04T01:27:57.842Z,17.90
2023-03-04T01:28:57.822Z,10.50
2023-03-04T01:29:57.821Z,12.40
2023-03-04T01:30:57.826Z,12.10
2023-03-04T01:31:57.852Z,11.40
2023-03-04T01:32:57.789Z,17.50
2023-03-04T01:33:57.785Z,12.80
2023-03-04T01:34:57.775Z,15.80
2023-03-04T01:35:57.761Z,13.10
2023-03-04T01:36:57.780Z,9.60
2023-03-04T01:37:57.743Z,16.70
2023-03-04T01:38:57.735Z,14.60
2023-03-04T01:39:57.712Z,11.10
2023-03-04T01:40:57.712Z,9.80
2023-03-04T01:41:57.704Z,10.10
2023-03-04T01:42:57.732Z,12.30
2023-03-04T01:43:57.687Z,15.80
2023-03-04T01:44:57.668Z,17.10
2023-03-04T01:45:57.718Z,11.40
2023-03-04T01:46:57.646Z,10.80
2023-03-04T01:47:57.625Z,12.40
2023-03-04T01:48:57.677Z,7.90
2023-03-04T01:49:57.609Z,11.00
2023-03-04T01:50:57.596Z,13.80
2023-03-04T01:51:57.594Z,12.70
2023-03-04T01:52:57.596Z,13.20
2023-03-04T01:53:57.566Z,16.20
2023-03-04T01:54:57.551Z,14.10
2023-03-04T01:55:57.548Z,10.90
2023-03-04T01:56:57.538Z,18.60
2023-03-04T01:57:57.552Z,11.50
2023-03-04T01:58:57.533Z,8.80
2023-03-04T01:59:57.504Z,6.90
2023-03-04T02:00:57.485Z,15.00
2023-03-04T02:01:57.584Z,8.10
2023-03-04T02:02:57.470Z,12.40
2023-03-04T02:03:57.520Z,12.00
2023-03-04T02:04:57.446Z,8.70
2023-03-04T02:05:57.440Z,4.90
2023-03-04T02:06:57.416Z,16.40
2023-03-04T02:07:57.439Z,9.60
2023-03-04T02:08:57.424Z,10.20
2023-03-04T02:09:57.385Z,13.30
2023-03-04T02:10:57.377Z,9.70
2023-03-04T02:11:57.368Z,12.50
2023-03-04T02:12:57.366Z,14.00
2023-03-04T02:13:57.366Z,13.20
2023-03-04T02:14:57.328Z,21.00
2023-03-04T02:15:57.398Z,14.40
2023-03-04T02:16:57.308Z,13.40
2023-03-04T02:17:57.319Z,14.30
2023-03-04T02:18:57.308Z,8.20
2023-03-04T02:19:57.279Z,13.40
2023-03-04T02:20:57.284Z,10.00
2023-03-04T02:21:57.311Z,11.40
2023-03-04T02:22:57.261Z,6.60
2023-03-04T02:23:57.281Z,12.00
2023-03-04T02:24:57.236Z,6.50
2023-03-04T02:25:57.226Z,8.40
2023-03-04T02:26:57.207Z,11.10
2023-03-04T02:27:57.200Z,10.40
2023-03-04T02:28:57.196Z,9.30
2023-03-04T02:29:57.221Z,10.40
2023-03-04T02:30:57.248Z,8.40
2023-03-04T02:31:57.213Z,14.40
2023-03-04T02:32:57.149Z,16.90
2023-03-04T02:33:57.129Z,6.90
2023-03-04T02:34:57.143Z,10.30
2023-03-04T02:35:57.181Z,9.30
2023-03-04T02:36:57.106Z,11.60
2023-03-04T02:37:57.088Z,12.00
2023-03-04T02:38:57.080Z,4.10
2023-03-04T02:39:57.090Z,8.90
2023-03-04T02:40:57.067Z,12.90
2023-03-04T02:41:57.050Z,6.30
2023-03-04T02:42:57.030Z,9.10
2023-03-04T02:43:57.019Z,8.80
2023-03-04T02:44:57.037Z,9.70
2023-03-04T02:45:57.031Z,12.10
2023-03-04T02:46:57.059Z,6.90
2023-03-04T02:47:56.989Z,8.00
2023-03-04T02:48:56.969Z,11.20
2023-03-04T02:49:56.970Z,9.90
2023-03-04T02:50:56.973Z,9.60
2023-03-04T02:51:56.938Z,11.90
2023-03-04T02:52:56.933Z,15.90
2023-03-04T02:53:56.918Z,6.00
2023-03-04T02:54:56.902Z,8.00
2023-03-04T02:55:56.922Z,7.30
2023-03-04T02:56:56.890Z,11.30
2023-03-04T02:57:56.883Z,6.60
2023-03-04T02:58:56.872Z,12.40
2023-03-04T02:59:56.865Z,14.60
2023-03-04T03:00:56.851Z,13.60
2023-03-04T03:01:56.908Z,8.60
2023-03-04T03:02:56.858Z,12.00
2023-03-04T03:03:56.813Z,14.10
2023-03-04T03:04:56.814Z,7.60
2023-03-04T03:05:56.792Z,7.50
2023-03-04T03:06:56.822Z,12.30
2023-03-04T03:07:56.784Z,10.00
2023-03-04T03:08:56.765Z,9.90
2023-03-04T03:09:56.753Z,5.20
2023-03-04T03:10:56.735Z,7.60
2023-03-04T03:11:56.763Z,6.80
2023-03-04T03:12:56.717Z,8.10
2023-03-04T03:13:56.711Z,10.70
2023-03-04T03:14:56.701Z,5.90
2023-03-04T03:15:56.752Z,6.30
2023-03-04T03:16:56.676Z,4.80
2023-03-04T03:17:56.664Z,9.10
2023-03-04T03:18:56.646Z,11.50
2023-03-04T03:19:56.642Z,13.00
2023-03-04T03:20:56.624Z,6.70
2023-03-04T03:21:56.661Z,8.20
2023-03-04T03:22:56.602Z,6.80
2023-03-04T03:23:56.620Z,10.50
2023-03-04T03:24:56.591Z,9.60
2023-03-04T03:25:56.569Z,7.00
2023-03-04T03:26:56.560Z,7.50
2023-03-04T03:27:56.551Z,10.50
2023-03-04T03:28:56.558Z,8.70
2023-03-04T03:29:56.529Z,9.40
2023-03-04T03:30:56.510Z,8.50
2023-03-04T03:31:56.610Z,10.00
2023-03-04T03:32:56.512Z,9.30
2023-03-04T03:33:56.489Z,13.30
2023-03-04T03:34:56.471Z,9.70
2023-03-04T03:35:56.535Z,7.50
2023-03-04T03:36:56.465Z,9.30
2023-03-04T03:37:56.438Z,8.90
2023-03-04T03:38:56.441Z,7.80
2023-03-04T03:39:56.421Z,10.30
2023-03-04T03:40:56.408Z,5.70
2023-03-04T03:41:56.431Z,9.20
2023-03-04T03:42:56.381Z,9.70
2023-03-04T03:43:56.380Z,8.90
2023-03-04T03:44:56.421Z,8.40
2023-03-04T03:45:56.424Z,9.80
2023-03-04T03:46:56.338Z,10.80
2023-03-04T03:47:56.332Z,10.40
2023-03-04T03:48:56.341Z,11.30
2023-03-04T03:49:56.308Z,8.60
2023-03-04T03:50:56.298Z,12.00
2023-03-04T03:51:56.289Z,7.70
2023-03-04T03:52:56.301Z,5.30
2023-03-04T03:53:56.261Z,11.60
2023-03-04T03:54:56.287Z,11.20
2023-03-04T03:55:56.252Z,6.50
2023-03-04T03:56:56.243Z,9.00
2023-03-04T03:57:56.241Z,10.40
2023-03-04T03:58:56.219Z,5.40
2023-03-04T03:59:56.234Z,15.00
2023-03-04T04:00:58.298Z,9.00
2023-03-04T04:01:56.249Z,10.70
2023-03-04T04:02:56.197Z,5.60
2023-03-04T04:03:56.162Z,11.50
2023-03-04T04:04:56.172Z,5.60
2023-03-04T04:05:56.134Z,10.20
2023-03-04T04:06:56.161Z,11.70
2023-03-04T04:07:56.117Z,6.70
2023-03-04T04:08:56.113Z,12.10
2023-03-04T04:09:56.122Z,9.50
2023-03-04T04:10:56.085Z,8.00
2023-03-04T04:11:56.078Z,6.40
2023-03-04T04:12:56.075Z,16.70
2023-03-04T04:13:56.054Z,8.90
2023-03-04T04:14:56.054Z,4.70
2023-03-04T04:15:56.053Z,9.90
2023-03-04T04:16:56.031Z,9.90
2023-03-04T04:17:56.041Z,7.80
2023-03-04T04:18:55.994Z,5.80
2023-03-04T04:19:55.984Z,7.50
2023-03-04T04:20:56.823Z,7.60
2023-03-04T04:21:55.990Z,8.30
2023-03-04T04:22:55.955Z,11.50
2023-03-04T04:23:55.947Z,11.90
2023-03-04T04:25:11.383Z,9.90
2023-03-04T04:25:55.931Z,13.50
2023-03-04T04:26:55.910Z,11.10
2023-03-04T04:27:55.939Z,10.10
2023-03-04T04:28:55.913Z,18.60
2023-03-04T04:29:55.893Z,15.70
2023-03-04T04:30:55.897Z,10.80
2023-03-04T04:31:55.873Z,8.10
2023-03-04T04:32:55.841Z,7.00
2023-03-04T04:33:55.830Z,7.20
2023-03-04T04:34:55.840Z,5.90
2023-03-04T04:35:55.896Z,8.70
2023-03-04T04:36:55.800Z,7.00
2023-03-04T04:37:55.812Z,8.50
2023-03-04T04:38:55.776Z,4.00
2023-03-04T04:39:55.769Z,6.00
2023-03-04T04:40:55.752Z,9.20
2023-03-04T04:41:55.769Z,7.10
2023-03-04T04:42:55.731Z,7.20
2023-03-04T04:43:55.757Z,4.10
2023-03-04T04:44:55.721Z,3.30
2023-03-04T04:45:55.729Z,9.20
2023-03-04T04:46:55.692Z,3.80
2023-03-04T04:47:55.684Z,6.70
2023-03-04T04:48:55.668Z,2.20
2023-03-04T04:49:55.691Z,7.30
2023-03-04T04:50:55.652Z,7.90
2023-03-04T04:51:55.637Z,7.90
2023-03-04T04:52:55.632Z,8.30
2023-03-04T04:53:55.620Z,8.50
2023-03-04T04:54:55.640Z,8.80
2023-03-04T04:55:55.600Z,11.00
2023-03-04T04:56:55.579Z,8.70
2023-03-04T04:57:55.564Z,8.80
2023-03-04T04:58:55.559Z,12.90
2023-03-04T04:59:55.567Z,7.80
2023-03-04T05:00:55.567Z,10.90
2023-03-04T05:01:55.540Z,5.00
2023-03-04T05:02:55.561Z,9.00
2023-03-04T05:03:55.561Z,9.60
2023-03-04T05:04:55.501Z,10.90
2023-03-04T05:05:55.518Z,11.50
2023-03-04T05:06:55.476Z,6.70
2023-03-04T05:07:55.470Z,2.60
2023-03-04T05:08:55.456Z,9.40
2023-03-04T05:09:55.473Z,10.90
2023-03-04T05:10:55.440Z,5.70
2023-03-04T05:11:55.432Z,6.40
2023-03-04T05:12:55.418Z,8.30
2023-03-04T05:13:55.413Z,9.50
2023-03-04T05:15:02.475Z,5.90
2023-03-04T05:15:55.411Z,12.90
2023-03-04T05:16:55.386Z,11.30
2023-03-04T05:17:55.364Z,7.50
2023-03-04T05:18:55.351Z,3.10
2023-03-04T05:19:55.356Z,5.40
2023-03-04T05:20:55.351Z,6.70
2023-03-04T05:21:55.321Z,7.10
2023-03-04T05:22:55.302Z,10.90
2023-03-04T05:23:55.329Z,7.00
2023-03-04T05:24:55.306Z,12.40
2023-03-04T05:25:55.284Z,6.50
2023-03-04T05:26:55.284Z,7.30
2023-03-04T05:27:55.257Z,6.60
2023-03-04T05:28:55.248Z,4.30
2023-03-04T05:29:55.239Z,8.50
2023-03-04T05:30:55.281Z,7.60
2023-03-04T05:31:55.258Z,7.20
2023-03-04T05:32:55.225Z,8.30
2023-03-04T05:33:55.189Z,3.10
2023-03-04T05:34:55.173Z,8.50
2023-03-04T05:35:55.274Z,3.90
2023-03-04T05:36:55.156Z,7.50
2023-03-04T05:37:55.173Z,3.00
2023-03-04T05:38:55.136Z,8.00
2023-03-04T05:39:55.123Z,12.10
2023-03-04T05:40:55.122Z,12.20
2023-03-04T05:41:55.107Z,9.60
2023-03-04T05:42:55.115Z,4.10
2023-03-04T05:43:55.093Z,3.80
2023-03-04T05:44:55.073Z,6.50
2023-03-04T05:45:55.069Z,9.40
2023-03-04T05:46:55.124Z,6.70
2023-03-04T05:47:55.046Z,10.10
2023-03-04T05:48:55.057Z,9.80
2023-03-04T05:49:55.026Z,5.90
2023-03-04T05:50:55.016Z,5.30
2023-03-04T05:51:55.006Z,4.80
2023-03-04T05:52:54.989Z,6.40
2023-03-04T05:53:54.972Z,8.40
2023-03-04T05:54:54.997Z,3.60
2023-03-04T05:55:54.946Z,12.40
2023-03-04T05:56:54.959Z,9.00
2023-03-04T05:57:54.942Z,5.50
2023-03-04T05:58:54.926Z,8.80
2023-03-04T05:59:54.916Z,8.90
2023-03-04T06:00:54.937Z,11.70
2023-03-04T06:01:54.884Z,4.70
2023-03-04T06:02:54.961Z,7.90
2023-03-04T06:03:54.929Z,5.30
2023-03-04T06:04:54.852Z,3.30
2023-03-04T06:05:54.851Z,5.70
2023-03-04T06:06:54.837Z,2.30
2023-03-04T06:07:54.846Z,3.40
2023-03-04T06:08:54.816Z,7.60
2023-03-04T06:09:54.811Z,8.50
2023-03-04T06:10:54.785Z,8.90
2023-03-04T06:11:54.804Z,15.00
2023-03-04T06:12:54.797Z,4.00
2023-03-04T06:13:54.805Z,5.20
2023-03-04T06:14:54.747Z,4.50
2023-03-04T06:15:54.761Z,4.80
2023-03-04T06:16:54.736Z,2.40
2023-03-04T06:17:54.743Z,5.00
2023-03-04T06:18:54.714Z,10.10
2023-03-04T06:19:54.697Z,4.40
2023-03-04T06:20:54.676Z,7.40
2023-03-04T06:21:54.682Z,8.00
2023-03-04T06:22:54.672Z,3.20
2023-03-04T06:23:54.666Z,4.80
2023-03-04T06:24:54.637Z,7.90
2023-03-04T06:25:54.657Z,5.70
2023-03-04T06:26:54.616Z,8.00
2023-03-04T06:27:55.296Z,5.70
2023-03-04T06:28:54.617Z,5.70
2023-03-04T06:29:54.594Z,5.70
2023-03-04T06:30:54.586Z,4.40
2023-03-04T06:31:54.710Z,6.50
2023-03-04T06:32:54.557Z,4.30
2023-03-04T06:33:54.572Z,4.80
2023-03-04T06:34:54.524Z,10.70
2023-03-04T06:35:54.608Z,8.70
2023-03-04T06:36:54.597Z,6.00
2023-03-04T06:37:54.508Z,8.70
2023-03-04T06:38:54.507Z,5.30
2023-03-04T06:39:54.481Z,5.80
2023-03-04T06:40:57.149Z,4.40
2023-03-04T06:41:54.465Z,4.20
2023-03-04T06:42:54.513Z,6.90
2023-03-04T06:43:54.435Z,8.50
2023-03-04T06:44:54.418Z,6.10
2023-03-04T06:45:54.481Z,4.70
2023-03-04T06:46:54.437Z,2.60
2023-03-04T06:47:54.487Z,7.00
2023-03-04T06:48:54.460Z,7.10
2023-03-04T06:49:54.377Z,11.20
2023-03-04T06:50:54.355Z,3.50
2023-03-04T06:51:54.408Z,4.40
2023-03-04T06:52:54.334Z,6.90
2023-03-04T06:53:54.353Z,5.10
2023-03-04T06:54:54.353Z,4.00
2023-03-04T06:55:54.315Z,6.90
2023-03-04T06:56:54.290Z,7.80
2023-03-04T06:57:54.294Z,4.10
2023-03-04T06:58:54.270Z,5.60
2023-03-04T06:59:54.283Z,5.70
2023-03-04T07:00:54.324Z,6.00
2023-03-04T07:01:54.244Z,6.50
2023-03-04T07:02:55.276Z,11.00
2023-03-04T07:03:54.313Z,4.10
2023-03-04T07:04:54.505Z,4.70
2023-03-04T07:05:54.195Z,12.50
2023-03-04T07:06:54.186Z,8.70
2023-03-04T07:07:54.171Z,6.40
2023-03-04T07:08:54.163Z,6.00
2023-03-04T07:09:54.152Z,8.20
2023-03-04T07:10:54.163Z,5.90
2023-03-04T07:11:54.133Z,5.20
2023-03-04T07:12:54.124Z,6.40
2023-03-04T07:13:54.105Z,5.00
2023-03-04T07:14:54.096Z,11.10
2023-03-04T07:15:54.117Z,3.10
2023-03-04T07:16:54.077Z,4.10
2023-03-04T07:17:54.064Z,6.80
2023-03-04T07:18:54.057Z,7.30
2023-03-04T07:19:54.070Z,5.10
2023-03-04T07:20:54.026Z,5.30
2023-03-04T07:21:54.067Z,6.30
2023-03-04T07:22:54.026Z,7.30
2023-03-04T07:23:54.006Z,11.90
2023-03-04T07:24:53.992Z,3.80
2023-03-04T07:25:53.974Z,2.90
2023-03-04T07:26:53.983Z,8.60
2023-03-04T07:27:53.984Z,8.80
2023-03-04T07:28:53.946Z,6.40
2023-03-04T07:29:53.933Z,4.80
2023-03-04T07:30:53.924Z,6.10
2023-03-04T07:31:54.093Z,7.30
2023-03-04T07:32:53.906Z,3.30
2023-03-04T07:33:53.925Z,6.50
2023-03-04T07:34:53.884Z,4.80
2023-03-04T07:35:53.943Z,5.50
2023-03-04T07:36:53.946Z,4.20
2023-03-04T07:37:53.890Z,5.00
2023-03-04T07:38:53.868Z,8.70
2023-03-04T07:39:53.837Z,8.70
2023-03-04T07:40:53.820Z,4.80
2023-03-04T07:41:53.805Z,6.10
2023-03-04T07:42:53.794Z,8.90
2023-03-04T07:43:53.790Z,6.20
2023-03-04T07:44:53.787Z,4.20
2023-03-04T07:45:53.808Z,4.00
2023-03-04T07:46:53.879Z,3.70
2023-03-04T07:47:53.756Z,10.00
2023-03-04T07:48:53.728Z,3.30
2023-03-04T07:49:53.717Z,7.00
2023-03-04T07:50:53.709Z,7.40
2023-03-04T07:51:53.769Z,4.50
2023-03-04T07:52:53.685Z,6.00
2023-03-04T07:53:53.693Z,4.10
2023-03-04T07:54:53.664Z,2.40
2023-03-04T07:55:53.679Z,6.00
2023-03-04T07:56:53.641Z,7.70
2023-03-04T07:57:53.629Z,6.70
2023-03-04T07:58:53.754Z,9.50
2023-03-04T07:59:53.608Z,4.60
2023-03-04T08:00:53.598Z,4.20
2023-03-04T08:01:53.598Z,8.50
2023-03-04T08:02:53.577Z,4.00
2023-03-04T08:03:53.650Z,5.10
2023-03-04T08:04:53.580Z,4.40
2023-03-04T08:05:53.549Z,4.70
2023-03-04T08:06:53.539Z,4.10
2023-03-04T08:07:53.518Z,3.30
2023-03-04T08:08:53.516Z,7.60
2023-03-04T08:09:53.528Z,4.30
2023-03-04T08:10:53.488Z,3.60
2023-03-04T08:11:53.487Z,9.50
2023-03-04T08:12:53.467Z,6.40
2023-03-04T08:13:53.456Z,3.80
2023-03-04T08:14:53.479Z,3.60
2023-03-04T08:15:53.460Z,5.70
2023-03-04T08:16:53.434Z,5.30
2023-03-04T08:17:53.408Z,6.40
2023-03-04T08:18:53.423Z,4.60
2023-03-04T08:19:53.408Z,4.90
2023-03-04T08:20:53.405Z,4.40
2023-03-04T08:21:53.379Z,8.20
2023-03-04T08:22:53.351Z,5.50
2023-03-04T08:23:53.451Z,5.20
2023-03-04T08:24:53.333Z,3.40
2023-03-04T08:25:53.359Z,8.20
2023-03-04T08:26:53.329Z,3.60
2023-03-04T08:27:53.298Z,12.10
2023-03-04T08:28:53.289Z,10.10
2023-03-04T08:29:53.297Z,6.80
2023-03-04T08:30:53.315Z,5.30
2023-03-04T08:31:53.436Z,5.20
2023-03-04T08:32:53.286Z,5.90
2023-03-04T08:33:53.233Z,6.20
2023-03-04T08:34:53.257Z,9.30
2023-03-04T08:35:53.222Z,3.00
2023-03-04T08:36:53.222Z,6.10
2023-03-04T08:37:53.198Z,5.00
2023-03-04T08:38:53.186Z,5.20
2023-03-04T08:39:53.178Z,6.70
2023-03-04T08:40:53.194Z,6.90
2023-03-04T08:41:53.148Z,9.40
2023-03-04T08:42:53.136Z,5.40
2023-03-04T08:43:53.128Z,7.50
2023-03-04T08:44:53.144Z,7.30
2023-03-04T08:45:53.134Z,5.30
2023-03-04T08:46:53.115Z,8.30
2023-03-04T08:47:53.077Z,3.70
2023-03-04T08:48:53.078Z,5.60
2023-03-04T08:49:53.063Z,5.80
2023-03-04T08:50:53.077Z,3.70
2023-03-04T08:51:53.038Z,4.00
2023-03-04T08:52:53.057Z,9.40
2023-03-04T08:53:53.022Z,6.10
2023-03-04T08:54:53.009Z,10.20
2023-03-04T08:55:53.017Z,3.80
2023-03-04T08:56:52.978Z,1.40
2023-03-04T08:57:53.007Z,6.80
2023-03-04T08:58:52.972Z,6.10
2023-03-04T08:59:52.952Z,4.70
2023-03-04T09:00:52.969Z,3.50
2023-03-04T09:01:52.936Z,6.10
2023-03-04T09:02:52.932Z,2.60
2023-03-04T09:03:53.077Z,5.90
2023-03-04T09:04:52.918Z,4.60
2023-03-04T09:05:52.879Z,6.40
2023-03-04T09:06:54.013Z,5.20
2023-03-04T09:07:52.860Z,5.70
2023-03-04T09:08:52.848Z,8.60
2023-03-04T09:09:52.876Z,6.70
2023-03-04T09:10:52.862Z,5.80
2023-03-04T09:11:52.842Z,4.90
2023-03-04T09:12:52.816Z,5.40
2023-03-04T09:13:52.819Z,1.80
2023-03-04T09:15:08.306Z,5.30
2023-03-04T09:15:53.858Z,4.80
2023-03-04T09:16:52.758Z,6.10
2023-03-04T09:17:52.750Z,8.00
2023-03-04T09:18:52.763Z,4.30
2023-03-04T09:19:52.750Z,4.60
2023-03-04T09:20:52.733Z,4.50
2023-03-04T09:21:52.708Z,3.50
2023-03-04T09:22:52.721Z,10.00
2023-03-04T09:23:52.681Z,9.90
2023-03-04T09:24:52.681Z,6.90
2023-03-04T09:25:52.693Z,2.90
2023-03-04T09:26:52.680Z,5.90
2023-03-04T09:27:52.652Z,8.80
2023-03-04T09:28:52.646Z,5.80
2023-03-04T09:29:52.631Z,6.60
2023-03-04T09:30:52.655Z,5.40
2023-03-04T09:31:52.620Z,3.70
2023-03-04T09:32:52.594Z,7.50
2023-03-04T09:33:52.586Z,4.70
2023-03-04T09:34:52.585Z,6.10
2023-03-04T09:35:52.579Z,4.70
2023-03-04T09:36:52.564Z,3.80
2023-03-04T09:37:52.540Z,8.00
2023-03-04T09:38:52.551Z,4.90
2023-03-04T09:39:52.518Z,5.90
2023-03-04T09:40:52.513Z,7.30
2023-03-04T09:41:52.501Z,4.50
2023-03-04T09:42:52.489Z,1.70
2023-03-04T09:43:52.473Z,3.30
2023-03-04T09:44:52.481Z,6.30
2023-03-04T09:45:52.450Z,5.60
2023-03-04T09:46:52.549Z,4.40
2023-03-04T09:47:52.434Z,4.30
2023-03-04T09:48:52.414Z,3.10
2023-03-04T09:49:52.403Z,7.80
2023-03-04T09:50:52.416Z,3.60
2023-03-04T09:51:52.382Z,7.90
2023-03-04T09:52:52.391Z,4.60
2023-03-04T09:53:52.366Z,3.20
2023-03-04T09:54:52.357Z,5.10
2023-03-04T09:55:52.364Z,3.10
2023-03-04T09:56:52.332Z,6.20
2023-03-04T09:57:52.311Z,3.50
2023-03-04T09:58:52.302Z,6.00
2023-03-04T09:59:52.295Z,6.60
2023-03-04T10:00:52.385Z,6.80
2023-03-04T10:01:52.299Z,3.60
2023-03-04T10:02:52.262Z,6.90
2023-03-04T10:03:52.330Z,4.50
2023-03-04T10:04:52.278Z,3.80
2023-03-04T10:05:52.251Z,2.30
2023-03-04T10:06:52.219Z,4.80
2023-03-04T10:07:52.202Z,7.60
2023-03-04T10:08:52.197Z,2.50
2023-03-04T10:09:52.180Z,5.90
2023-03-04T10:10:52.244Z,5.40
2023-03-04T10:11:52.162Z,4.50
2023-03-04T10:12:52.159Z,3.40
2023-03-04T10:13:52.140Z,3.20
2023-03-04T10:14:52.129Z,3.60
2023-03-04T10:15:52.174Z,6.00
2023-03-04T10:16:52.114Z,3.10
2023-03-04T10:17:52.092Z,2.00
2023-03-04T10:18:52.090Z,3.50
2023-03-04T10:19:52.077Z,2.20
2023-03-04T10:20:52.092Z,2.90
2023-03-04T10:21:52.052Z,1.80
2023-03-04T10:22:52.048Z,4.00
2023-03-04T10:23:52.031Z,4.80
2023-03-04T10:24:52.023Z,6.60
2023-03-04T10:25:52.012Z,2.90
2023-03-04T10:26:52.026Z,2.60
2023-03-04T10:27:51.990Z,2.50
2023-03-04T10:28:51.977Z,4.10
2023-03-04T10:29:51.967Z,1.30
2023-03-04T10:30:51.972Z,4.60
2023-03-04T10:31:52.066Z,2.50
2023-03-04T10:32:52.032Z,4.50
2023-03-04T10:33:51.923Z,2.60
2023-03-04T10:34:51.902Z,1.50
2023-03-04T10:35:51.997Z,6.50
2023-03-04T10:36:51.884Z,3.80
2023-03-04T10:37:51.903Z,2.60
2023-03-04T10:38:51.862Z,3.40
2023-03-04T10:39:51.849Z,2.10
2023-03-04T10:40:51.871Z,1.30
2023-03-04T10:41:51.925Z,2.90
2023-03-04T10:42:51.827Z,1.60
2023-03-04T10:43:51.812Z,4.30
2023-03-04T10:44:51.808Z,5.10
2023-03-04T10:45:51.826Z,2.90
2023-03-04T10:46:51.803Z,2.90
2023-03-04T10:47:51.760Z,2.70
2023-03-04T10:48:51.756Z,7.50
2023-03-04T10:49:51.758Z,3.20
2023-03-04T10:50:51.740Z,1.70
2023-03-04T10:51:51.733Z,2.70
2023-03-04T10:52:51.737Z,4.40
2023-03-04T10:53:51.756Z,1.10
2023-03-04T10:54:51.737Z,3.60
2023-03-04T10:55:51.677Z,3.10
2023-03-04T10:56:51.722Z,6.10
2023-03-04T10:57:51.651Z,2.60
2023-03-04T10:58:51.663Z,6.80
2023-03-04T10:59:51.678Z,4.70
2023-03-04T11:00:51.662Z,4.30
2023-03-04T11:01:51.605Z,3.40
2023-03-04T11:02:51.658Z,6.20
2023-03-04T11:03:51.636Z,2.90
2023-03-04T11:04:51.576Z,2.30
2023-03-04T11:05:51.611Z,3.10
2023-03-04T11:06:51.612Z,3.10
2023-03-04T11:07:56.315Z,3.20
2023-03-04T11:08:52.563Z,4.30
2023-03-04T11:09:51.514Z,2.20
2023-03-04T11:10:51.513Z,5.30
2023-03-04T11:11:51.636Z,3.80
2023-03-04T11:12:51.514Z,2.40
2023-03-04T11:13:51.494Z,3.20
2023-03-04T11:14:51.475Z,1.60
2023-03-04T11:15:51.491Z,2.50
2023-03-04T11:16:51.503Z,2.50
2023-03-04T11:17:51.546Z,1.60
2023-03-04T11:18:51.437Z,2.50
2023-03-04T11:19:51.413Z,1.30
2023-03-04T11:20:51.399Z,5.20
2023-03-04T11:21:51.380Z,3.80
2023-03-04T11:22:51.381Z,4.80
2023-03-04T11:23:51.382Z,3.50
2023-03-04T11:24:51.366Z,1.10
2023-03-04T11:26:47.770Z,3.60
2023-03-04T11:27:47.749Z,3.10
2023-03-04T11:28:47.747Z,3.60
2023-03-04T11:29:47.809Z,3.00
2023-03-04T11:30:47.769Z,3.70
2023-03-04T11:31:47.878Z,1.80
2023-03-04T11:32:47.766Z,2.10
2023-03-04T11:33:47.758Z,3.30
2023-03-04T11:34:47.713Z,1.10
2023-03-04T11:35:47.757Z,5.10
2023-03-04T11:36:47.695Z,2.00
2023-03-04T11:37:47.718Z,5.10
2023-03-04T11:38:47.680Z,3.00
2023-03-04T11:39:47.714Z,1.00
2023-03-04T11:40:47.677Z,2.90
2023-03-04T11:41:47.654Z,3.40
2023-03-04T11:42:47.656Z,8.80
2023-03-04T11:43:47.758Z,4.60
2023-03-04T11:44:47.620Z,3.50
2023-03-04T11:45:47.680Z,5.90
2023-03-04T11:46:47.608Z,5.90
2023-03-04T11:47:47.594Z,7.70
2023-03-04T11:48:47.606Z,3.40
2023-03-04T11:49:47.568Z,4.90
2023-03-04T11:50:47.561Z,4.40
2023-03-04T11:51:47.548Z,6.80
2023-03-04T11:52:47.537Z,6.70
2023-03-04T11:53:47.570Z,3.10
2023-03-04T11:54:47.532Z,5.00
2023-03-04T11:55:47.526Z,2.70
2023-03-04T11:56:47.518Z,4.20
2023-03-04T11:57:47.495Z,3.50
2023-03-04T11:58:47.520Z,3.50
2023-03-04T11:59:47.472Z,3.00
2023-03-04T12:00:47.451Z,8.40
2023-03-04T12:01:47.460Z,8.30
2023-03-04T12:02:47.449Z,5.20
2023-03-04T12:03:47.555Z,4.40
2023-03-04T12:04:47.469Z,3.80
2023-03-04T12:05:47.430Z,4.00
2023-03-04T12:06:47.367Z,3.80
2023-03-04T12:07:47.372Z,4.60
2023-03-04T12:08:47.364Z,5.60
2023-03-04T12:09:47.327Z,2.60
2023-03-04T12:10:47.319Z,3.90
2023-03-04T12:11:47.437Z,7.00
2023-03-04T12:12:47.323Z,5.10
2023-03-04T12:13:47.286Z,6.90
2023-03-04T12:14:47.286Z,2.10
2023-03-04T12:15:47.273Z,3.30
2023-03-04T12:16:47.260Z,2.30
2023-03-04T12:17:47.298Z,5.20
2023-03-04T12:18:47.278Z,3.00
2023-03-04T12:19:47.236Z,3.10
2023-03-04T12:20:47.219Z,3.10
2023-03-04T12:21:47.239Z,6.40
2023-03-04T12:22:47.195Z,3.70
2023-03-04T12:23:47.160Z,2.70
2023-03-04T12:24:47.173Z,8.80
2023-03-04T12:25:47.243Z,5.70
2023-03-04T12:26:47.129Z,5.20
2023-03-04T12:27:47.119Z,2.50
2023-03-04T12:28:47.135Z,4.60
2023-03-04T12:29:47.098Z,2.30
2023-03-04T12:30:47.097Z,1.80
2023-03-04T12:31:47.072Z,3.40
2023-03-04T12:32:47.060Z,4.70
2023-03-04T12:33:47.065Z,4.10
2023-03-04T12:34:47.215Z,2.20
2023-03-04T12:35:47.160Z,5.80
2023-03-04T12:36:47.010Z,2.10
2023-03-04T12:37:46.999Z,4.30
2023-03-04T12:38:47.005Z,8.20
2023-03-04T12:39:47.003Z,8.00
2023-03-04T12:40:46.958Z,4.10
2023-03-04T12:41:46.952Z,5.30
2023-03-04T12:42:46.968Z,4.50
2023-03-04T12:43:46.931Z,3.80
2023-03-04T12:44:46.948Z,4.50
2023-03-04T12:45:46.900Z,5.10
2023-03-04T12:46:46.960Z,8.10
2023-03-04T12:47:46.882Z,8.10
2023-03-04T12:48:46.873Z,5.70
2023-03-04T12:49:46.863Z,6.90
2023-03-04T12:50:46.884Z,12.00
2023-03-04T12:51:46.843Z,9.00
2023-03-04T12:52:46.832Z,6.00
2023-03-04T12:53:46.823Z,4.70
2023-03-04T12:54:46.817Z,5.20
2023-03-04T12:55:46.802Z,5.90
2023-03-04T12:56:46.828Z,4.30
2023-03-04T12:57:46.778Z,6.70
2023-03-04T12:58:46.796Z,7.60
2023-03-04T12:59:46.761Z,5.00
2023-03-04T13:00:46.753Z,3.70
2023-03-04T13:01:46.754Z,8.70
2023-03-04T13:02:46.801Z,5.60
2023-03-04T13:03:46.797Z,3.80
2023-03-04T13:04:46.711Z,11.40
2023-03-04T13:05:46.691Z,4.20
2023-03-04T13:06:46.709Z,2.10
2023-03-04T13:07:46.680Z,10.50
2023-03-04T13:08:46.666Z,9.40
2023-03-04T13:09:46.676Z,8.50
2023-03-04T13:10:46.645Z,5.10
2023-03-04T13:11:46.632Z,5.90
2023-03-04T13:12:46.621Z,8.60